METAR Data
IDs: Format: Raw Decoded Include TAF

Data at: 0206 UTC 19 Oct 2021

PABA 190152Z AUTO 27019KT 2SM -SN BR BKN007 OVC033 M07/M08 A2982 RMK AO2 SLP106 P0000 T10671078 FZRANO
PABA 190139Z AUTO 27019KT 2 1/2SM -SN BR SCT007 BKN029 OVC038 M07/M08 A2983 RMK AO2 P0000 FZRANO
PABA 190121Z AUTO 27019KT 2SM -SN BR BKN007 OVC027 M07/M08 A2982 RMK AO2 P0000 FZRANO
PABA 182352Z AUTO 27021KT 1SM -SN BR FEW009 OVC020 M07/M08 A2983 RMK AO2 PK WND 27027/2254 SLP108 P0000 60000 T10671078 11067 21067 55000 FZRANO
PABA 182322Z AUTO 27020KT 1 1/2SM -SN BR FEW009 OVC016 M07/M08 A2983 RMK AO2 PK WND 27027/2254 P0000 FZRANO
PABA 182306Z AUTO 27022KT 1 3/4SM -SN BR OVC016 M07/M08 A2983 RMK AO2 PK WND 27027/2254 P0000 FZRANO
PABA 182252Z AUTO 27023KT 2SM -SN BR OVC016 M07/M08 A2983 RMK AO2 PK WND 27028/2223 SLP107 P0000 T10671083 FZRANO
PABA 182248Z AUTO 27023KT 2 1/2SM -SN BR FEW010 OVC014 M07/M08 A2983 RMK AO2 PK WND 27028/2223 P0000 FZRANO
PABA 182152Z AUTO 26024KT 9SM -SN BKN010 OVC013 M07/M08 A2983 RMK AO2 PK WND 26027/2152 UPB39E42SNE35B42 SLP108 P0000 T10671083 FZRANO
PABA 182052Z AUTO 26023KT 9SM -SN OVC010 M07/M08 A2983 RMK AO2 PK WND 26027/2048 SLP110 P0000 60000 T10671083 57004 FZRANO
PABA 181952Z AUTO 26022KT 9SM -SN OVC010 M07/M08 A2984 RMK AO2 PK WND 27028/1927 SLP112 P0000 T10671083 FZRANO
PABA 181852Z AUTO 26024KT 9SM -SN OVC010 M07/M08 A2984 RMK AO2 PK WND 27028/1831 SLP112 P0000 T10671083 FZRANO
PABA 181752Z AUTO 26025KT 9SM -SN OVC010 M07/M08 A2985 RMK AO2 PK WND 26028/1723 UPE1657B41E45SNB45 CIG 009V013 SLP114 P0000 60000 T10671083 11067 21072 58003 FZRANO
PABA 181652Z AUTO 27025KT 9SM UP OVC010 M07/M08 A2985 RMK AO2 PK WND 27029/1630 UPE30B50SNB41E50 SLP116 P0000 T10671083 FZRANO
PABA 181552Z AUTO 27023KT 10SM UP OVC010 M07/M08 A2986 RMK AO2 PK WND 26029/1543 UPB21E27B47SNE21 SLP117 P0000 T10671078 FZRANO
PABA 181452Z AUTO 26024KT 9SM -SN OVC012 M07/M08 A2986 RMK AO2 PK WND 26029/1429 SLP117 P0000 60000 T10671078 56004 FZRANO
PABA 181352Z AUTO 26022KT 9SM -SN OVC013 M07/M08 A2986 RMK AO2 PK WND 26027/1259 SNB1255 SLP118 P0000 T10671078 FZRANO
PABA 181252Z AUTO 26022KT 9SM OVC011 M07/M08 A2987 RMK AO2 PK WND 26027/1239 SNB11E50 SLP121 P0000 T10671083 FZRANO
PABA 181152Z AUTO 25019G23KT 10SM OVC011 M07/M08 A2987 RMK AO2 SNB27E45 SLP122 P0000 60000 T10721083 11067 21078 50004 FZRANO
PABA 181052Z AUTO 24014KT 10SM OVC011 M07/M08 A2987 RMK AO2 SLP122 T10721083 FZRANO
PABA 181017Z AUTO 24015KT 10SM OVC013 M07/M09 A2987 RMK AO2 FZRANO
PABA 180952Z AUTO 24016KT 10SM OVC015 M08/M09 A2987 RMK AO2 SLP121 T10781089 FZRANO
PABA 180852Z AUTO 26018KT 10SM OVC015 M07/M08 A2986 RMK AO2 SNB28E38 SLP118 P0000 60000 T10721083 410671106 53007 FZRANO
PABA 180759Z AUTO 26020KT 10SM OVC011 M07/M08 A2985 RMK AO2 FZRANO
PABA 180752Z AUTO 26018KT 10SM OVC009 M07/M08 A2985 RMK AO2 SLP115 T10721083 FZRANO
PABA 180652Z AUTO 25016KT 10SM OVC009 M07/M08 A2984 RMK AO2 SLP112 T10721078 FZRANO
PABA 180552Z AUTO 25013KT 10SM OVC009 M07/M08 A2984 RMK AO2 CIG 007V012 SLP111 60000 T10671078 11067 21078 52006 FZRANO
PABA 180452Z AUTO 26012KT 8SM OVC009 M07/M08 A2983 RMK AO2 CIG 006V011 SLP108 T10721078 FZRANO
PABA 180352Z AUTO 26013KT 5SM BR SCT004 OVC009 M07/M08 A2983 RMK AO2 SNB0254E50 SLP106 P0000 T10721078 FZRANO
PABA 180331Z AUTO 25013KT 3SM -SN BR OVC004 M07/M08 A2982 RMK AO2 SNB0254 P0000 FZRANO
PABA 180319Z AUTO 25013KT 2SM -SN BR OVC004 M07/M08 A2982 RMK AO2 SNB0254 P0000 FZRANO
PABA 180258Z AUTO 24010KT 1 1/4SM -SN BR BKN004 OVC007 M08/M08 A2982 RMK AO2 SNB54 P0000 FZRANO
PABA 180252Z AUTO 23009KT 1SM BR OVC004 M08/M08 A2982 RMK AO2 CIG 002V008 SLP104 60000 T10781083 53007 FZRANO
PABA 180236Z AUTO 23008KT 1SM BR OVC004 M08/M09 A2981 RMK AO2 CIG 004V008 FZRANO
PABA 180233Z AUTO 22008KT 3/4SM BR OVC004 M08/M09 A2981 RMK AO2 CIG 004V008 FZRANO
PABA 180207Z AUTO 23009KT 1/2SM FZFG OVC004 M08/M08 A2981 RMK AO2 FZRANO
PABA 180204Z AUTO 23008KT 3/4SM BR OVC004 M07/M08 A2981 RMK AO2 FZRANO
PABA 180201Z AUTO 23008KT 1SM BR OVC004 M07/M08 A2981 RMK AO2 FZRANO
PABA 180152Z AUTO 23008KT 2 1/2SM BR OVC004 M07/M08 A2981 RMK AO2 SNB01E43 SLP101 P0000 T10721083 FZRANO
PABA 180148Z AUTO 24008KT 1 1/4SM BR BKN004 OVC008 M07/M08 A2981 RMK AO2 SNB01E43 CIG 003V007 P0000 FZRANO
PABA 180144Z AUTO 24008KT 3/4SM BR BKN004 OVC008 M07/M08 A2981 RMK AO2 SNB01E43 CIG 003V007 P0000 FZRANO
PABA 180141Z AUTO 24009KT 1/2SM -SN FZFG BKN004 OVC008 M07/M08 A2981 RMK AO2 SNB01 CIG 003V007 P0000 FZRANO
PABA 180129Z AUTO 24010KT 1/2SM -SN FZFG OVC008 M07/M08 A2981 RMK AO2 SNB01 CIG 004V011 P0000 FZRANO
PABA 180110Z AUTO 25010KT 1/4SM -SN FZFG BKN006 OVC010 M07/M08 A2980 RMK AO2 SNB01 CIG 004V008 P0000 FZRANO
PABA 180106Z AUTO 25010KT 1/2SM -SN FZFG BKN006 OVC010 M07/M08 A2981 RMK AO2 SNB01 CIG 004V008 P0000 FZRANO
PABA 180102Z AUTO 25010KT 3/4SM -SN BR OVC006 M07/M08 A2980 RMK AO2 VIS 1/2V4 SNB01 CIG 003V009 P0000 FZRANO
PABA 180100Z AUTO 25010KT 1SM BR BKN004 OVC008 M07/M08 A2980 RMK AO2 VIS 1/2V4 CIG 003V007 FZRANO
PABA 180052Z AUTO 24009KT 2SM BR OVC004 M07/M07 A2980 RMK AO2 VIS 1 1/4V3 SNE2359 SLP099 P0000 T10671072 FZRANO
PABA 180047Z AUTO 25008KT 2 1/2SM BR OVC004 M07/M07 A2980 RMK AO2 VIS 1 3/4V4 SNE2359 P0000 FZRANO
PABA 180021Z AUTO 25009KT 3SM BR OVC004 M07/M07 A2980 RMK AO2 SNE2359 P0000 FZRANO
PABA 180000Z AUTO 25008KT 2 1/2SM BR BKN004 OVC009 M07/M08 A2980 RMK AO2 SNE2359 P0000 FZRANO
PABA 172355Z AUTO 25007KT 1 1/2SM -SN BR BKN004 OVC009 M07/M08 A2980 RMK AO2 P0000 FZRANO
PABA 172352Z AUTO 24005KT 1SM -SN BR BKN004 OVC009 M07/M08 A2980 RMK AO2 SNB49 SLP097 P0000 60000 T10721078 11072 21100 53002 FZRANO
PABA 172339Z AUTO 20003KT 1/2SM FZFG FEW002 OVC009 M08/M09 A2980 RMK AO2 CIG 006V010 FZRANO
PABA 172323Z AUTO 22004KT 1/4SM FZFG FEW002 OVC009 M08/M09 A2980 RMK AO2 FZRANO
PABA 172259Z AUTO 24004KT 1/4SM FZFG FEW002 OVC011 M09/M10 A2979 RMK AO2 FZRANO
PABA 172254Z AUTO 24004KT 1/2SM FZFG FEW002 OVC011 M09/M10 A2979 RMK AO2 FZRANO
PABA 172251Z AUTO 24004KT 3/4SM BR FEW002 OVC011 M09/M10 A2979 RMK AO2 VIS 1/4V5 SLP095 T10891100 FZRANO
PABA 172250Z AUTO 23004KT 3/4SM BR FEW002 OVC011 M09/M10 A2979 RMK AO2 VIS 1/2V5 FZRANO
PABA 172247Z AUTO 23005KT 1 3/4SM BR FEW002 OVC011 M09/M10 A2979 RMK AO2 VIS 3/4V5 FZRANO
PABA 172152Z AUTO 22005KT 10SM FEW002 BKN011 M09/M11 A2979 RMK AO2 SLP095 T10941106 FZRANO
PABA 172141Z AUTO 23005KT 10SM SCT002 BKN011 M09/M11 A2979 RMK AO2 FZRANO
PABA 172125Z AUTO 22005KT 3SM BR OVC002 M09/M11 A2979 RMK AO2 FZRANO
PABA 172118Z AUTO 22005KT 1 1/4SM BR OVC002 M09/M11 A2979 RMK AO2 FZRANO
PABA 172115Z AUTO 22005KT 1SM BR OVC002 M09/M11 A2979 RMK AO2 FZRANO
PABA 172112Z AUTO 22004KT 3/4SM BR OVC002 M09/M11 A2979 RMK AO2 FZRANO
PABA 172052Z AUTO 23005KT 1/2SM FZFG OVC002 M10/M11 A2979 RMK AO2 SLP095 T11001106 55002 FZRANO
PABA 172031Z AUTO 22005KT 1/2SM FZFG OVC002 M09/M10 A2979 RMK AO2 FZRANO
PABA 172023Z AUTO 22005KT 3/4SM BR OVC002 M09/M11 A2979 RMK AO2 FZRANO
PABA 171959Z AUTO 21005KT 1 1/2SM BR OVC002 M09/M10 A2979 RMK AO2 FZRANO
PABA 171955Z AUTO 21006KT 2SM BR OVC002 M09/M10 A2979 RMK AO2 FZRANO
PABA 171952Z AUTO 21007KT 1 3/4SM BR OVC002 M08/M09 A2979 RMK AO2 SLP095 T10831094 FZRANO
PABA 171948Z AUTO 20007KT 1SM BR OVC004 M08/M09 A2979 RMK AO2 FZRANO
PABA 171906Z AUTO 21005KT 1/2SM FZFG OVC004 M08/M09 A2979 RMK AO2 FZRANO
PABA 171852Z AUTO 21006KT 1/4SM FZFG OVC004 M09/M09 A2980 RMK AO2 CIG 003V006 SLP097 T10891094 FZRANO
PABA 171826Z AUTO 21008KT 1/4SM FZFG OVC002 M09/M10 A2980 RMK AO2 FZRANO
PABA 171815Z AUTO 22007KT 1/2SM FZFG BKN002 OVC013 M10/M11 A2979 RMK AO2 FZRANO
PABA 171806Z AUTO 21005KT 3/4SM BR BKN002 BKN006 OVC013 M11/M11 A2979 RMK AO2 FZRANO
PABA 171752Z AUTO 22007KT 3/4SM BR FEW002 BKN006 OVC013 M11/M12 A2979 RMK AO2 CIG 004V008 SLP095 60000 T11061117 11072 21106 56002 FZRANO
PABA 171740Z AUTO 21007KT 1/2SM FZFG SCT002 OVC006 M11/M12 A2979 RMK AO2 FZRANO
PABA 171736Z AUTO 21008KT 1/2SM FZFG BKN002 OVC008 M11/M12 A2979 RMK AO2 FZRANO
PABA 171730Z AUTO 20006KT 3/4SM BR BKN002 OVC008 M11/M11 A2979 RMK AO2 FZRANO
PABA 171727Z AUTO 20007KT 3/4SM BR SCT002 OVC008 M11/M11 A2979 RMK AO2 CIG 006V011 FZRANO
PABA 171717Z AUTO 21007KT 1SM BR OVC008 M11/M12 A2979 RMK AO2 CIG 003V012 FZRANO
PABA 171714Z AUTO 21007KT 1 1/4SM BR OVC008 M11/M12 A2979 RMK AO2 CIG 003V012 FZRANO
PABA 171708Z AUTO 20006KT 1 1/2SM BR SCT003 OVC010 M11/M12 A2979 RMK AO2 VIS 1V4 CIG 008V012 FZRANO
PABA 171659Z AUTO 20008KT 1SM BR FEW003 OVC010 M11/M12 A2979 RMK AO2 CIG 006V013 FZRANO
PABA 171652Z AUTO 20009KT 1 3/4SM BR SCT003 OVC013 M09/M11 A2979 RMK AO2 SLP096 T10941111 FZRANO
PABA 171552Z AUTO 26006KT 4SM BR FEW005 BKN011 OVC016 M08/M08 A2980 RMK AO2 SNE33 SLP098 P0000 T10781083 FZRANO
PABA 171547Z AUTO 26005KT 4SM BR FEW005 BKN010 OVC016 M08/M08 A2980 RMK AO2 SNE33 CIG 006V015 P0000 FZRANO
PABA 171533Z AUTO 25007KT 5SM BR BKN005 OVC012 M08/M09 A2981 RMK AO2 SNE33 CIG 003V009 P0000 FZRANO
PABA 171530Z AUTO 24008KT 4SM -SN BR BKN004 OVC007 M08/M09 A2981 RMK AO2 CIG 003V006 P0000 FZRANO
PABA 171526Z AUTO 23008KT 2SM -SN BR BKN004 OVC007 M08/M09 A2981 RMK AO2 P0000 FZRANO
PABA 171522Z AUTO 24009KT 1 1/4SM -SN BR BKN002 OVC007 M08/M09 A2981 RMK AO2 P0000 FZRANO
PABA 171517Z AUTO 24010KT 3/4SM -SN BR OVC002 M08/M09 A2981 RMK AO2 P0000 FZRANO
PABA 171452Z AUTO 23012KT 1/2SM -SN FZFG BKN002 OVC011 M08/M08 A2981 RMK AO2 SNB23 SLP103 P0000 60000 T10781083 55008 FZRANO
PABA 171446Z AUTO 23010KT 1/2SM -SN FZFG BKN002 OVC011 M08/M08 A2981 RMK AO2 SNB23 P0000 FZRANO
PABA 171442Z AUTO 23011KT 3/4SM BR BKN002 OVC011 M08/M08 A2982 RMK AO2 SNB23E34 P0000 FZRANO
PABA 171430Z AUTO 23010KT 1/2SM -SN FZFG BKN002 OVC011 M08/M09 A2981 RMK AO2 SNB23 P0000 FZRANO
PABA 171424Z AUTO 23008KT 3/4SM -SN BR BKN002 OVC016 M08/M08 A2982 RMK AO2 SNB23 P0000 FZRANO
PABA 171420Z AUTO 24009KT 1 3/4SM BR BKN002 OVC016 M07/M08 A2982 RMK AO2 FZRANO
PABA 171413Z AUTO 24008KT 9SM BKN002 OVC014 M07/M08 A2982 RMK AO2 FZRANO